Other Surface Observations
Issued by NWS Missoula, MT

Home | Current Version | Previous Version | Text Only | Print | Product List | Glossary On
Versions: 1 2 3 4 5 6 7 8 9 10 11 12 13 14 15 16 17 18 19 20 21 22 23 24 25 26 27 28 29 30 31 32 33 34 35 36 37 38 39 40 41 42 43 44 45 46 47 48 49 50
000
SXUS55 KMSO 222039
OSOMSO
MONTANA AWOS SUMMARY
NATIONAL WEATHER SERVICE MISSOULA MT
238 PM MDT MON SEP 22 2014

Montana AWOS Reports

ROUNDUP     |KRPX 222015Z AUTO 19009KT 40SM 25/08 A2984 RMK AO1 T02500083
LAUREL      |K6S8 222015Z AUTO 26004KT 15SM 26/08 A2993 RMK AO1 T02610083




USA.gov is the U.S. government's official web portal to all federal, state and local government web resources and services.